sensor_id;sensor_type;location;lat;lon;timestamp;P1;durP1;ratioP1;P2;durP2;ratioP2
74894;SDS011;63447;49.446;8.666;2022-09-20T00:00:27;6.55;;;2.58;;
74894;SDS011;63447;49.446;8.666;2022-09-20T00:02:54;6.25;;;1.85;;
74894;SDS011;63447;49.446;8.666;2022-09-20T00:05:22;6.82;;;2.45;;
74894;SDS011;63447;49.446;8.666;2022-09-20T00:07:52;6.30;;;2.13;;
74894;SDS011;63447;49.446;8.666;2022-09-20T00:10:17;5.38;;;2.20;;
74894;SDS011;63447;49.446;8.666;2022-09-20T00:12:45;5.75;;;2.30;;
74894;SDS011;63447;49.446;8.666;2022-09-20T00:15:10;6.35;;;2.30;;
74894;SDS011;63447;49.446;8.666;2022-09-20T00:17:35;6.43;;;2.40;;
74894;SDS011;63447;49.446;8.666;2022-09-20T00:20:01;6.40;;;2.63;;
74894;SDS011;63447;49.446;8.666;2022-09-20T00:22:26;7.47;;;2.20;;
74894;SDS011;63447;49.446;8.666;2022-09-20T00:24:51;6.00;;;2.50;;
74894;SDS011;63447;49.446;8.666;2022-09-20T00:27:17;8.33;;;2.67;;
74894;SDS011;63447;49.446;8.666;2022-09-20T00:29:42;7.70;;;2.80;;
74894;SDS011;63447;49.446;8.666;2022-09-20T00:32:07;7.40;;;2.87;;
74894;SDS011;63447;49.446;8.666;2022-09-20T00:34:33;6.47;;;2.60;;
74894;SDS011;63447;49.446;8.666;2022-09-20T00:37:17;8.50;;;3.05;;
74894;SDS011;63447;49.446;8.666;2022-09-20T00:39:42;6.20;;;2.43;;
74894;SDS011;63447;49.446;8.666;2022-09-20T00:42:10;6.53;;;2.50;;
74894;SDS011;63447;49.446;8.666;2022-09-20T00:50:11;7.20;;;2.97;;
74894;SDS011;63447;49.446;8.666;2022-09-20T00:52:47;5.90;;;2.45;;
74894;SDS011;63447;49.446;8.666;2022-09-20T00:55:18;7.03;;;2.58;;
74894;SDS011;63447;49.446;8.666;2022-09-20T00:57:44;5.85;;;2.67;;
74894;SDS011;63447;49.446;8.666;2022-09-20T01:00:11;7.15;;;2.88;;
74894;SDS011;63447;49.446;8.666;2022-09-20T01:02:39;5.28;;;2.55;;
74894;SDS011;63447;49.446;8.666;2022-09-20T01:05:17;5.78;;;2.28;;
74894;SDS011;63447;49.446;8.666;2022-09-20T01:07:44;8.07;;;2.50;;
74894;SDS011;63447;49.446;8.666;2022-09-20T01:10:12;6.18;;;2.53;;
74894;SDS011;63447;49.446;8.666;2022-09-20T01:12:40;8.40;;;2.60;;
74894;SDS011;63447;49.446;8.666;2022-09-20T01:15:08;6.00;;;2.67;;
74894;SDS011;63447;49.446;8.666;2022-09-20T01:17:35;4.72;;;2.30;;
74894;SDS011;63447;49.446;8.666;2022-09-20T01:20:16;7.32;;;2.80;;
74894;SDS011;63447;49.446;8.666;2022-09-20T01:27:53;7.25;;;2.65;;
74894;SDS011;63447;49.446;8.666;2022-09-20T01:30:29;8.80;;;2.70;;
74894;SDS011;63447;49.446;8.666;2022-09-20T01:33:08;6.60;;;2.40;;
74894;SDS011;63447;49.446;8.666;2022-09-20T01:35:37;7.13;;;2.38;;
74894;SDS011;63447;49.446;8.666;2022-09-20T01:38:26;7.32;;;2.85;;
74894;SDS011;63447;49.446;8.666;2022-09-20T01:41:17;10.80;;;3.80;;
74894;SDS011;63447;49.446;8.666;2022-09-20T02:00:01;7.43;;;3.00;;
74894;SDS011;63447;49.446;8.666;2022-09-20T02:05:11;8.93;;;3.05;;
74894;SDS011;63447;49.446;8.666;2022-09-20T02:10:55;6.07;;;2.95;;
74894;SDS011;63447;49.446;8.666;2022-09-20T02:21:36;8.65;;;3.78;;
74894;SDS011;63447;49.446;8.666;2022-09-20T02:24:34;5.78;;;2.60;;
74894;SDS011;63447;49.446;8.666;2022-09-20T02:27:22;6.25;;;3.05;;
74894;SDS011;63447;49.446;8.666;2022-09-20T02:30:18;7.78;;;3.10;;
74894;SDS011;63447;49.446;8.666;2022-09-20T02:46:44;7.38;;;2.90;;
74894;SDS011;63447;49.446;8.666;2022-09-20T03:00:28;8.77;;;3.05;;
74894;SDS011;63447;49.446;8.666;2022-09-20T03:27:48;6.95;;;3.08;;
74894;SDS011;63447;49.446;8.666;2022-09-20T03:46:38;8.40;;;3.63;;
74894;SDS011;63447;49.446;8.666;2022-09-20T03:55:24;8.50;;;3.28;;
74894;SDS011;63447;49.446;8.666;2022-09-20T04:06:46;9.00;;;3.03;;
74894;SDS011;63447;49.446;8.666;2022-09-20T04:18:44;7.90;;;3.22;;
74894;SDS011;63447;49.446;8.666;2022-09-20T04:23:52;8.40;;;3.10;;
74894;SDS011;63447;49.446;8.666;2022-09-20T04:26:25;8.18;;;3.42;;
74894;SDS011;63447;49.446;8.666;2022-09-20T04:32:05;6.38;;;3.00;;
74894;SDS011;63447;49.446;8.666;2022-09-20T04:34:44;8.38;;;3.60;;
74894;SDS011;63447;49.446;8.666;2022-09-20T04:37:32;7.22;;;3.15;;
74894;SDS011;63447;49.446;8.666;2022-09-20T04:59:33;5.53;;;2.47;;
74894;SDS011;63447;49.446;8.666;2022-09-20T05:08:08;24.63;;;11.13;;
74894;SDS011;63447;49.446;8.666;2022-09-20T05:11:00;8.65;;;3.63;;
74894;SDS011;63447;49.446;8.666;2022-09-20T05:21:52;9.70;;;3.95;;
74894;SDS011;63447;49.446;8.666;2022-09-20T05:24:38;8.98;;;3.50;;
74894;SDS011;63447;49.446;8.666;2022-09-20T05:29:50;10.68;;;4.40;;
74894;SDS011;63447;49.446;8.666;2022-09-20T05:32:23;9.30;;;3.67;;
74894;SDS011;63447;49.446;8.666;2022-09-20T05:35:03;11.27;;;4.25;;
74894;SDS011;63447;49.446;8.666;2022-09-20T05:40:26;9.23;;;4.45;;
74894;SDS011;63447;49.446;8.666;2022-09-20T05:45:30;8.30;;;4.18;;
74894;SDS011;63447;49.446;8.666;2022-09-20T05:59:15;9.27;;;4.07;;
74894;SDS011;63447;49.446;8.666;2022-09-20T06:02:15;9.18;;;3.80;;
74894;SDS011;63447;49.446;8.666;2022-09-20T06:15:57;7.28;;;3.65;;
74894;SDS011;63447;49.446;8.666;2022-09-20T06:18:26;9.70;;;4.07;;
74894;SDS011;63447;49.446;8.666;2022-09-20T06:23:41;9.85;;;4.57;;
74894;SDS011;63447;49.446;8.666;2022-09-20T06:26:09;11.25;;;5.30;;
74894;SDS011;63447;49.446;8.666;2022-09-20T06:28:42;11.90;;;6.28;;
74894;SDS011;63447;49.446;8.666;2022-09-20T06:31:15;13.77;;;5.78;;
74894;SDS011;63447;49.446;8.666;2022-09-20T06:33:46;10.40;;;5.43;;
74894;SDS011;63447;49.446;8.666;2022-09-20T06:36:29;12.45;;;6.03;;
74894;SDS011;63447;49.446;8.666;2022-09-20T06:42:24;10.15;;;4.88;;
74894;SDS011;63447;49.446;8.666;2022-09-20T06:44:51;11.13;;;5.40;;
74894;SDS011;63447;49.446;8.666;2022-09-20T06:47:22;11.75;;;5.78;;
74894;SDS011;63447;49.446;8.666;2022-09-20T06:49:47;10.37;;;5.43;;
74894;SDS011;63447;49.446;8.666;2022-09-20T06:52:18;12.25;;;5.15;;
74894;SDS011;63447;49.446;8.666;2022-09-20T06:54:48;10.80;;;5.20;;
74894;SDS011;63447;49.446;8.666;2022-09-20T06:57:18;10.32;;;5.45;;
74894;SDS011;63447;49.446;8.666;2022-09-20T06:59:54;15.40;;;6.07;;
74894;SDS011;63447;49.446;8.666;2022-09-20T07:02:22;12.25;;;5.30;;
74894;SDS011;63447;49.446;8.666;2022-09-20T07:04:51;11.93;;;4.90;;
74894;SDS011;63447;49.446;8.666;2022-09-20T07:07:23;12.20;;;5.25;;
74894;SDS011;63447;49.446;8.666;2022-09-20T07:09:49;13.20;;;5.93;;
74894;SDS011;63447;49.446;8.666;2022-09-20T07:12:16;11.90;;;5.75;;
74894;SDS011;63447;49.446;8.666;2022-09-20T07:14:45;10.80;;;5.25;;
74894;SDS011;63447;49.446;8.666;2022-09-20T07:17:10;12.27;;;5.70;;
74894;SDS011;63447;49.446;8.666;2022-09-20T07:19:35;13.37;;;5.73;;
74894;SDS011;63447;49.446;8.666;2022-09-20T07:22:01;12.27;;;5.40;;
74894;SDS011;63447;49.446;8.666;2022-09-20T07:24:26;14.93;;;5.45;;
74894;SDS011;63447;49.446;8.666;2022-09-20T07:26:57;12.23;;;5.60;;
74894;SDS011;63447;49.446;8.666;2022-09-20T07:29:26;11.50;;;5.95;;
74894;SDS011;63447;49.446;8.666;2022-09-20T07:31:53;12.43;;;5.88;;
74894;SDS011;63447;49.446;8.666;2022-09-20T07:34:19;14.05;;;6.13;;
74894;SDS011;63447;49.446;8.666;2022-09-20T07:36:48;11.25;;;5.43;;
74894;SDS011;63447;49.446;8.666;2022-09-20T07:39:15;12.55;;;5.18;;
74894;SDS011;63447;49.446;8.666;2022-09-20T07:41:41;8.23;;;3.95;;
74894;SDS011;63447;49.446;8.666;2022-09-20T07:44:09;11.00;;;4.88;;
74894;SDS011;63447;49.446;8.666;2022-09-20T07:46:50;11.75;;;3.88;;
74894;SDS011;63447;49.446;8.666;2022-09-20T07:49:16;8.63;;;4.00;;
74894;SDS011;63447;49.446;8.666;2022-09-20T07:51:44;7.63;;;3.22;;
74894;SDS011;63447;49.446;8.666;2022-09-20T07:54:14;9.43;;;3.53;;
74894;SDS011;63447;49.446;8.666;2022-09-20T07:56:40;8.85;;;3.83;;
74894;SDS011;63447;49.446;8.666;2022-09-20T07:59:08;8.50;;;3.45;;
74894;SDS011;63447;49.446;8.666;2022-09-20T08:01:37;7.03;;;3.00;;
74894;SDS011;63447;49.446;8.666;2022-09-20T08:04:05;9.07;;;3.80;;
74894;SDS011;63447;49.446;8.666;2022-09-20T08:06:43;7.85;;;3.33;;
74894;SDS011;63447;49.446;8.666;2022-09-20T08:09:09;6.60;;;2.53;;
74894;SDS011;63447;49.446;8.666;2022-09-20T08:11:38;7.82;;;3.05;;
74894;SDS011;63447;49.446;8.666;2022-09-20T08:14:10;9.35;;;3.20;;
74894;SDS011;63447;49.446;8.666;2022-09-20T08:16:40;9.02;;;3.60;;
74894;SDS011;63447;49.446;8.666;2022-09-20T08:19:13;11.13;;;3.70;;
74894;SDS011;63447;49.446;8.666;2022-09-20T08:21:45;7.43;;;3.30;;
74894;SDS011;63447;49.446;8.666;2022-09-20T08:24:11;7.78;;;3.22;;
74894;SDS011;63447;49.446;8.666;2022-09-20T08:26:37;8.52;;;3.28;;
74894;SDS011;63447;49.446;8.666;2022-09-20T08:29:07;9.52;;;3.20;;
74894;SDS011;63447;49.446;8.666;2022-09-20T08:31:36;11.45;;;3.90;;
74894;SDS011;63447;49.446;8.666;2022-09-20T08:34:06;11.68;;;3.60;;
74894;SDS011;63447;49.446;8.666;2022-09-20T08:36:35;10.75;;;3.60;;
74894;SDS011;63447;49.446;8.666;2022-09-20T08:39:03;8.90;;;3.35;;
74894;SDS011;63447;49.446;8.666;2022-09-20T08:41:45;6.75;;;3.30;;
74894;SDS011;63447;49.446;8.666;2022-09-20T08:44:22;9.48;;;3.50;;
74894;SDS011;63447;49.446;8.666;2022-09-20T08:46:54;11.02;;;3.88;;
74894;SDS011;63447;49.446;8.666;2022-09-20T08:49:30;9.05;;;3.60;;
74894;SDS011;63447;49.446;8.666;2022-09-20T08:51:57;8.82;;;3.75;;
74894;SDS011;63447;49.446;8.666;2022-09-20T08:54:25;8.10;;;3.83;;
74894;SDS011;63447;49.446;8.666;2022-09-20T08:56:51;8.63;;;3.63;;
74894;SDS011;63447;49.446;8.666;2022-09-20T08:59:21;9.30;;;3.03;;
74894;SDS011;63447;49.446;8.666;2022-09-20T09:01:49;11.43;;;3.80;;
74894;SDS011;63447;49.446;8.666;2022-09-20T09:04:21;12.90;;;4.10;;
74894;SDS011;63447;49.446;8.666;2022-09-20T09:06:48;8.50;;;4.18;;
74894;SDS011;63447;49.446;8.666;2022-09-20T09:09:20;9.70;;;3.38;;
74894;SDS011;63447;49.446;8.666;2022-09-20T09:11:49;11.48;;;4.20;;
74894;SDS011;63447;49.446;8.666;2022-09-20T09:14:29;10.93;;;4.63;;
74894;SDS011;63447;49.446;8.666;2022-09-20T09:17:26;8.18;;;3.92;;
74894;SDS011;63447;49.446;8.666;2022-09-20T09:22:30;9.32;;;3.78;;
74894;SDS011;63447;49.446;8.666;2022-09-20T09:27:48;11.63;;;3.78;;
74894;SDS011;63447;49.446;8.666;2022-09-20T09:30:21;8.27;;;2.83;;
74894;SDS011;63447;49.446;8.666;2022-09-20T09:32:46;9.85;;;3.55;;
74894;SDS011;63447;49.446;8.666;2022-09-20T09:35:30;9.82;;;3.03;;
74894;SDS011;63447;49.446;8.666;2022-09-20T09:38:00;9.15;;;3.05;;
74894;SDS011;63447;49.446;8.666;2022-09-20T09:40:27;12.75;;;3.30;;
74894;SDS011;63447;49.446;8.666;2022-09-20T09:42:58;11.57;;;3.45;;
74894;SDS011;63447;49.446;8.666;2022-09-20T09:45:31;7.65;;;2.95;;
74894;SDS011;63447;49.446;8.666;2022-09-20T09:48:03;6.82;;;2.67;;
74894;SDS011;63447;49.446;8.666;2022-09-20T09:50:42;7.05;;;3.05;;
74894;SDS011;63447;49.446;8.666;2022-09-20T09:53:09;6.90;;;2.55;;
74894;SDS011;63447;49.446;8.666;2022-09-20T09:55:42;7.50;;;2.63;;
74894;SDS011;63447;49.446;8.666;2022-09-20T10:01:23;7.07;;;2.08;;
74894;SDS011;63447;49.446;8.666;2022-09-20T10:04:13;5.75;;;2.13;;
74894;SDS011;63447;49.446;8.666;2022-09-20T10:06:46;9.25;;;2.38;;
74894;SDS011;63447;49.446;8.666;2022-09-20T10:22:45;6.30;;;2.05;;
74894;SDS011;63447;49.446;8.666;2022-09-20T10:31:02;8.02;;;2.08;;
74894;SDS011;63447;49.446;8.666;2022-09-20T10:34:02;9.27;;;2.13;;
74894;SDS011;63447;49.446;8.666;2022-09-20T10:44:56;5.13;;;1.50;;
74894;SDS011;63447;49.446;8.666;2022-09-20T10:47:48;5.63;;;1.60;;
74894;SDS011;63447;49.446;8.666;2022-09-20T10:53:02;5.53;;;1.85;;
74894;SDS011;63447;49.446;8.666;2022-09-20T10:55:44;7.10;;;1.83;;
74894;SDS011;63447;49.446;8.666;2022-09-20T11:03:32;5.43;;;1.60;;
74894;SDS011;63447;49.446;8.666;2022-09-20T11:09:07;7.53;;;2.00;;
74894;SDS011;63447;49.446;8.666;2022-09-20T11:11:41;5.13;;;1.63;;
74894;SDS011;63447;49.446;8.666;2022-09-20T11:14:16;6.38;;;1.60;;
74894;SDS011;63447;49.446;8.666;2022-09-20T11:16:58;9.40;;;1.73;;
74894;SDS011;63447;49.446;8.666;2022-09-20T11:19:37;6.38;;;1.95;;
74894;SDS011;63447;49.446;8.666;2022-09-20T11:22:12;7.38;;;1.70;;
74894;SDS011;63447;49.446;8.666;2022-09-20T11:24:55;5.57;;;1.67;;
74894;SDS011;63447;49.446;8.666;2022-09-20T11:27:48;4.90;;;1.17;;
74894;SDS011;63447;49.446;8.666;2022-09-20T11:30:30;7.32;;;1.42;;
74894;SDS011;63447;49.446;8.666;2022-09-20T11:33:22;6.28;;;1.50;;
74894;SDS011;63447;49.446;8.666;2022-09-20T11:35:54;6.57;;;1.30;;
74894;SDS011;63447;49.446;8.666;2022-09-20T11:38:40;5.45;;;1.20;;
74894;SDS011;63447;49.446;8.666;2022-09-20T11:41:14;4.35;;;1.00;;
74894;SDS011;63447;49.446;8.666;2022-09-20T11:43:46;4.97;;;1.25;;
74894;SDS011;63447;49.446;8.666;2022-09-20T11:49:04;3.13;;;0.90;;
74894;SDS011;63447;49.446;8.666;2022-09-20T11:52:10;4.22;;;0.80;;
74894;SDS011;63447;49.446;8.666;2022-09-20T11:57:18;3.97;;;1.10;;
74894;SDS011;63447;49.446;8.666;2022-09-20T11:59:51;4.47;;;0.88;;
74894;SDS011;63447;49.446;8.666;2022-09-20T12:02:29;4.50;;;1.10;;
74894;SDS011;63447;49.446;8.666;2022-09-20T12:05:02;5.00;;;0.90;;
74894;SDS011;63447;49.446;8.666;2022-09-20T12:07:37;4.65;;;1.52;;
74894;SDS011;63447;49.446;8.666;2022-09-20T12:12:38;6.55;;;1.42;;
74894;SDS011;63447;49.446;8.666;2022-09-20T12:15:21;3.90;;;1.20;;
74894;SDS011;63447;49.446;8.666;2022-09-20T12:28:50;4.68;;;1.20;;
74894;SDS011;63447;49.446;8.666;2022-09-20T12:36:23;4.95;;;1.40;;
74894;SDS011;63447;49.446;8.666;2022-09-20T12:39:02;4.00;;;1.10;;
74894;SDS011;63447;49.446;8.666;2022-09-20T12:41:43;4.00;;;1.38;;
74894;SDS011;63447;49.446;8.666;2022-09-20T12:44:31;4.35;;;1.50;;
74894;SDS011;63447;49.446;8.666;2022-09-20T13:19:01;4.00;;;1.20;;
74894;SDS011;63447;49.446;8.666;2022-09-20T13:21:30;5.85;;;1.48;;
74894;SDS011;63447;49.446;8.666;2022-09-20T13:23:59;5.28;;;1.17;;
74894;SDS011;63447;49.446;8.666;2022-09-20T13:26:29;4.63;;;1.20;;
74894;SDS011;63447;49.446;8.666;2022-09-20T13:29:08;2.38;;;0.82;;
74894;SDS011;63447;49.446;8.666;2022-09-20T13:31:49;3.95;;;1.27;;
74894;SDS011;63447;49.446;8.666;2022-09-20T13:34:19;4.13;;;1.30;;
74894;SDS011;63447;49.446;8.666;2022-09-20T13:36:46;6.20;;;1.27;;
74894;SDS011;63447;49.446;8.666;2022-09-20T13:39:29;3.78;;;1.10;;
74894;SDS011;63447;49.446;8.666;2022-09-20T13:42:03;3.75;;;1.10;;
74894;SDS011;63447;49.446;8.666;2022-09-20T13:44:33;3.28;;;1.00;;
74894;SDS011;63447;49.446;8.666;2022-09-20T13:47:01;4.50;;;1.35;;
74894;SDS011;63447;49.446;8.666;2022-09-20T13:49:44;7.57;;;1.25;;
74894;SDS011;63447;49.446;8.666;2022-09-20T13:52:19;4.35;;;1.35;;
74894;SDS011;63447;49.446;8.666;2022-09-20T13:54:49;4.28;;;1.48;;
74894;SDS011;63447;49.446;8.666;2022-09-20T13:57:18;5.38;;;1.27;;
74894;SDS011;63447;49.446;8.666;2022-09-20T13:59:49;5.38;;;1.42;;
74894;SDS011;63447;49.446;8.666;2022-09-20T14:02:22;5.50;;;1.40;;
74894;SDS011;63447;49.446;8.666;2022-09-20T14:04:55;5.75;;;1.65;;
74894;SDS011;63447;49.446;8.666;2022-09-20T14:07:24;5.72;;;1.60;;
74894;SDS011;63447;49.446;8.666;2022-09-20T14:09:52;4.82;;;1.70;;
74894;SDS011;63447;49.446;8.666;2022-09-20T14:12:18;4.30;;;1.50;;
74894;SDS011;63447;49.446;8.666;2022-09-20T14:14:45;4.78;;;1.55;;
74894;SDS011;63447;49.446;8.666;2022-09-20T14:17:12;4.38;;;1.33;;
74894;SDS011;63447;49.446;8.666;2022-09-20T14:19:42;6.80;;;1.40;;
74894;SDS011;63447;49.446;8.666;2022-09-20T14:22:18;5.32;;;1.55;;
74894;SDS011;63447;49.446;8.666;2022-09-20T14:25:00;3.60;;;1.33;;
74894;SDS011;63447;49.446;8.666;2022-09-20T14:27:28;5.03;;;1.60;;
74894;SDS011;63447;49.446;8.666;2022-09-20T14:29:55;5.50;;;1.60;;
74894;SDS011;63447;49.446;8.666;2022-09-20T14:37:24;3.33;;;1.05;;
74894;SDS011;63447;49.446;8.666;2022-09-20T14:42:27;3.38;;;1.17;;
74894;SDS011;63447;49.446;8.666;2022-09-20T14:44:53;3.75;;;1.13;;
74894;SDS011;63447;49.446;8.666;2022-09-20T14:47:28;4.38;;;1.30;;
74894;SDS011;63447;49.446;8.666;2022-09-20T14:50:17;4.22;;;1.30;;
74894;SDS011;63447;49.446;8.666;2022-09-20T14:53:33;5.95;;;1.45;;
74894;SDS011;63447;49.446;8.666;2022-09-20T14:55:34;4.40;;;1.40;;
74894;SDS011;63447;49.446;8.666;2022-09-20T14:58:03;5.70;;;1.50;;
74894;SDS011;63447;49.446;8.666;2022-09-20T15:03:48;4.55;;;1.27;;
74894;SDS011;63447;49.446;8.666;2022-09-20T15:06:16;4.60;;;1.50;;
74894;SDS011;63447;49.446;8.666;2022-09-20T15:08:41;3.78;;;1.50;;
74894;SDS011;63447;49.446;8.666;2022-09-20T15:11:11;4.20;;;1.33;;
74894;SDS011;63447;49.446;8.666;2022-09-20T15:13:40;3.67;;;1.10;;
74894;SDS011;63447;49.446;8.666;2022-09-20T15:16:07;5.63;;;1.40;;
74894;SDS011;63447;49.446;8.666;2022-09-20T15:18:38;4.35;;;1.50;;
74894;SDS011;63447;49.446;8.666;2022-09-20T15:21:05;5.38;;;1.20;;
74894;SDS011;63447;49.446;8.666;2022-09-20T15:23:32;4.13;;;1.25;;
74894;SDS011;63447;49.446;8.666;2022-09-20T15:25:57;4.18;;;1.20;;
74894;SDS011;63447;49.446;8.666;2022-09-20T15:28:24;5.10;;;1.33;;
74894;SDS011;63447;49.446;8.666;2022-09-20T15:30:52;4.43;;;1.35;;
74894;SDS011;63447;49.446;8.666;2022-09-20T15:33:23;7.45;;;1.60;;
74894;SDS011;63447;49.446;8.666;2022-09-20T15:35:49;4.85;;;1.75;;
74894;SDS011;63447;49.446;8.666;2022-09-20T15:38:15;4.25;;;1.42;;
74894;SDS011;63447;49.446;8.666;2022-09-20T15:40:43;5.07;;;1.67;;
74894;SDS011;63447;49.446;8.666;2022-09-20T15:45:53;4.93;;;1.40;;
74894;SDS011;63447;49.446;8.666;2022-09-20T15:48:26;4.47;;;1.30;;
74894;SDS011;63447;49.446;8.666;2022-09-20T15:53:39;4.22;;;1.63;;
74894;SDS011;63447;49.446;8.666;2022-09-20T15:56:12;3.58;;;1.42;;
74894;SDS011;63447;49.446;8.666;2022-09-20T15:58:42;4.00;;;1.65;;
74894;SDS011;63447;49.446;8.666;2022-09-20T16:03:38;4.05;;;1.52;;
74894;SDS011;63447;49.446;8.666;2022-09-20T16:06:04;4.67;;;1.50;;
74894;SDS011;63447;49.446;8.666;2022-09-20T16:08:33;5.80;;;1.60;;
74894;SDS011;63447;49.446;8.666;2022-09-20T16:11:00;4.90;;;1.50;;
74894;SDS011;63447;49.446;8.666;2022-09-20T16:13:26;5.15;;;1.50;;
74894;SDS011;63447;49.446;8.666;2022-09-20T16:15:56;5.07;;;1.40;;
74894;SDS011;63447;49.446;8.666;2022-09-20T16:18:23;4.32;;;1.60;;
74894;SDS011;63447;49.446;8.666;2022-09-20T16:21:07;4.88;;;1.30;;
74894;SDS011;63447;49.446;8.666;2022-09-20T16:23:35;5.47;;;1.55;;
74894;SDS011;63447;49.446;8.666;2022-09-20T16:26:04;7.15;;;1.70;;
74894;SDS011;63447;49.446;8.666;2022-09-20T16:28:30;4.03;;;1.30;;
74894;SDS011;63447;49.446;8.666;2022-09-20T16:30:56;4.10;;;1.70;;
74894;SDS011;63447;49.446;8.666;2022-09-20T16:33:22;4.68;;;1.70;;
74894;SDS011;63447;49.446;8.666;2022-09-20T16:35:47;6.13;;;1.70;;
74894;SDS011;63447;49.446;8.666;2022-09-20T16:38:13;5.28;;;1.58;;
74894;SDS011;63447;49.446;8.666;2022-09-20T16:40:41;5.38;;;1.55;;
74894;SDS011;63447;49.446;8.666;2022-09-20T16:43:06;5.35;;;1.67;;
74894;SDS011;63447;49.446;8.666;2022-09-20T16:45:33;5.68;;;1.85;;
74894;SDS011;63447;49.446;8.666;2022-09-20T16:48:01;5.30;;;1.67;;
74894;SDS011;63447;49.446;8.666;2022-09-20T16:50:28;4.80;;;1.73;;
74894;SDS011;63447;49.446;8.666;2022-09-20T16:52:53;4.28;;;1.67;;
74894;SDS011;63447;49.446;8.666;2022-09-20T16:55:19;4.53;;;1.50;;
74894;SDS011;63447;49.446;8.666;2022-09-20T16:57:48;6.38;;;1.85;;
74894;SDS011;63447;49.446;8.666;2022-09-20T17:00:19;4.93;;;1.52;;
74894;SDS011;63447;49.446;8.666;2022-09-20T17:02:48;4.82;;;1.40;;
74894;SDS011;63447;49.446;8.666;2022-09-20T17:05:14;6.47;;;1.52;;
74894;SDS011;63447;49.446;8.666;2022-09-20T17:07:42;4.95;;;1.35;;
74894;SDS011;63447;49.446;8.666;2022-09-20T17:10:08;5.22;;;1.38;;
74894;SDS011;63447;49.446;8.666;2022-09-20T17:12:35;4.05;;;1.30;;
74894;SDS011;63447;49.446;8.666;2022-09-20T17:15:09;4.78;;;1.83;;
74894;SDS011;63447;49.446;8.666;2022-09-20T17:17:37;5.90;;;1.40;;
74894;SDS011;63447;49.446;8.666;2022-09-20T17:20:03;5.15;;;1.40;;
74894;SDS011;63447;49.446;8.666;2022-09-20T17:22:30;6.68;;;1.45;;
74894;SDS011;63447;49.446;8.666;2022-09-20T17:24:55;4.97;;;1.70;;
74894;SDS011;63447;49.446;8.666;2022-09-20T17:27:21;6.00;;;2.00;;
74894;SDS011;63447;49.446;8.666;2022-09-20T17:29:48;4.78;;;1.98;;
74894;SDS011;63447;49.446;8.666;2022-09-20T17:32:13;6.80;;;2.63;;
74894;SDS011;63447;49.446;8.666;2022-09-20T17:34:38;7.85;;;2.50;;
74894;SDS011;63447;49.446;8.666;2022-09-20T17:37:04;6.50;;;2.17;;
74894;SDS011;63447;49.446;8.666;2022-09-20T17:39:33;6.20;;;2.55;;
74894;SDS011;63447;49.446;8.666;2022-09-20T17:41:58;7.88;;;2.42;;
74894;SDS011;63447;49.446;8.666;2022-09-20T17:44:23;7.97;;;2.80;;
74894;SDS011;63447;49.446;8.666;2022-09-20T17:46:51;8.65;;;3.38;;
74894;SDS011;63447;49.446;8.666;2022-09-20T17:49:18;6.05;;;2.72;;
74894;SDS011;63447;49.446;8.666;2022-09-20T17:51:46;6.13;;;2.50;;
74894;SDS011;63447;49.446;8.666;2022-09-20T17:54:17;7.53;;;2.55;;
74894;SDS011;63447;49.446;8.666;2022-09-20T17:56:44;6.88;;;2.30;;
74894;SDS011;63447;49.446;8.666;2022-09-20T17:59:14;8.60;;;2.40;;
74894;SDS011;63447;49.446;8.666;2022-09-20T18:01:40;5.25;;;2.05;;
74894;SDS011;63447;49.446;8.666;2022-09-20T18:04:09;10.57;;;5.72;;
74894;SDS011;63447;49.446;8.666;2022-09-20T18:06:41;6.72;;;2.95;;
74894;SDS011;63447;49.446;8.666;2022-09-20T18:09:10;10.13;;;3.13;;
74894;SDS011;63447;49.446;8.666;2022-09-20T18:11:42;5.82;;;2.40;;
74894;SDS011;63447;49.446;8.666;2022-09-20T18:14:13;6.40;;;2.55;;
74894;SDS011;63447;49.446;8.666;2022-09-20T18:16:39;6.22;;;2.08;;
74894;SDS011;63447;49.446;8.666;2022-09-20T18:19:05;6.78;;;2.08;;
74894;SDS011;63447;49.446;8.666;2022-09-20T18:21:32;4.00;;;1.90;;
74894;SDS011;63447;49.446;8.666;2022-09-20T18:23:59;5.70;;;2.03;;
74894;SDS011;63447;49.446;8.666;2022-09-20T18:26:28;4.88;;;2.05;;
74894;SDS011;63447;49.446;8.666;2022-09-20T18:31:32;6.32;;;2.38;;
74894;SDS011;63447;49.446;8.666;2022-09-20T18:34:05;5.47;;;2.63;;
74894;SDS011;63447;49.446;8.666;2022-09-20T18:36:33;5.95;;;2.35;;
74894;SDS011;63447;49.446;8.666;2022-09-20T18:39:00;5.70;;;2.25;;
74894;SDS011;63447;49.446;8.666;2022-09-20T18:41:28;6.18;;;2.00;;
74894;SDS011;63447;49.446;8.666;2022-09-20T18:44:01;6.10;;;2.20;;
74894;SDS011;63447;49.446;8.666;2022-09-20T18:46:28;7.57;;;2.65;;
74894;SDS011;63447;49.446;8.666;2022-09-20T18:48:55;8.07;;;2.90;;
74894;SDS011;63447;49.446;8.666;2022-09-20T18:51:26;6.38;;;2.47;;
74894;SDS011;63447;49.446;8.666;2022-09-20T18:54:00;6.85;;;2.45;;
74894;SDS011;63447;49.446;8.666;2022-09-20T18:58:55;6.22;;;2.00;;
74894;SDS011;63447;49.446;8.666;2022-09-20T19:26:50;6.35;;;1.70;;
74894;SDS011;63447;49.446;8.666;2022-09-20T19:29:16;8.05;;;2.13;;
74894;SDS011;63447;49.446;8.666;2022-09-20T19:31:48;5.07;;;1.80;;
74894;SDS011;63447;49.446;8.666;2022-09-20T19:34:19;8.35;;;3.00;;
74894;SDS011;63447;49.446;8.666;2022-09-20T19:43:18;4.40;;;1.90;;
74894;SDS011;63447;49.446;8.666;2022-09-20T19:46:03;6.90;;;2.50;;
74894;SDS011;63447;49.446;8.666;2022-09-20T19:48:37;6.55;;;3.08;;
74894;SDS011;63447;49.446;8.666;2022-09-20T19:51:08;5.80;;;2.83;;
74894;SDS011;63447;49.446;8.666;2022-09-20T19:53:35;9.57;;;2.60;;
74894;SDS011;63447;49.446;8.666;2022-09-20T19:59:05;6.00;;;2.28;;
74894;SDS011;63447;49.446;8.666;2022-09-20T20:01:31;5.68;;;1.67;;
74894;SDS011;63447;49.446;8.666;2022-09-20T20:03:57;5.95;;;1.83;;
74894;SDS011;63447;49.446;8.666;2022-09-20T20:06:29;5.53;;;2.35;;
74894;SDS011;63447;49.446;8.666;2022-09-20T20:27:15;6.65;;;2.88;;
74894;SDS011;63447;49.446;8.666;2022-09-20T20:29:41;5.95;;;2.70;;
74894;SDS011;63447;49.446;8.666;2022-09-20T20:32:06;5.87;;;2.77;;
74894;SDS011;63447;49.446;8.666;2022-09-20T20:34:31;7.43;;;3.17;;
74894;SDS011;63447;49.446;8.666;2022-09-20T20:36:58;5.65;;;2.65;;
74894;SDS011;63447;49.446;8.666;2022-09-20T20:39:26;6.80;;;2.78;;
74894;SDS011;63447;49.446;8.666;2022-09-20T20:41:53;5.28;;;2.40;;
74894;SDS011;63447;49.446;8.666;2022-09-20T20:44:21;6.88;;;3.00;;
74894;SDS011;63447;49.446;8.666;2022-09-20T20:46:47;6.15;;;2.60;;
74894;SDS011;63447;49.446;8.666;2022-09-20T20:49:15;7.07;;;3.70;;
74894;SDS011;63447;49.446;8.666;2022-09-20T20:51:41;8.65;;;3.65;;
74894;SDS011;63447;49.446;8.666;2022-09-20T20:54:06;6.85;;;3.45;;
74894;SDS011;63447;49.446;8.666;2022-09-20T20:56:33;6.43;;;2.78;;
74894;SDS011;63447;49.446;8.666;2022-09-20T20:59:01;6.50;;;2.40;;
74894;SDS011;63447;49.446;8.666;2022-09-20T21:01:37;5.93;;;2.00;;
74894;SDS011;63447;49.446;8.666;2022-09-20T21:04:07;4.20;;;1.65;;
74894;SDS011;63447;49.446;8.666;2022-09-20T21:06:35;5.63;;;1.85;;
74894;SDS011;63447;49.446;8.666;2022-09-20T21:09:04;4.45;;;1.92;;
74894;SDS011;63447;49.446;8.666;2022-09-20T21:11:31;7.32;;;2.15;;
74894;SDS011;63447;49.446;8.666;2022-09-20T21:14:01;5.10;;;2.22;;
74894;SDS011;63447;49.446;8.666;2022-09-20T21:16:29;5.68;;;2.55;;
74894;SDS011;63447;49.446;8.666;2022-09-20T21:18:56;5.55;;;2.88;;
74894;SDS011;63447;49.446;8.666;2022-09-20T21:21:25;8.45;;;3.10;;
74894;SDS011;63447;49.446;8.666;2022-09-20T21:23:54;7.93;;;3.30;;
74894;SDS011;63447;49.446;8.666;2022-09-20T21:26:22;7.20;;;3.15;;
74894;SDS011;63447;49.446;8.666;2022-09-20T21:28:55;9.13;;;3.63;;
74894;SDS011;63447;49.446;8.666;2022-09-20T21:31:23;7.05;;;3.05;;
74894;SDS011;63447;49.446;8.666;2022-09-20T21:33:49;5.68;;;3.20;;
74894;SDS011;63447;49.446;8.666;2022-09-20T21:36:15;5.13;;;2.70;;